createdAt,value
2023-03-24T00:00:34.650Z,64.80
2023-03-24T00:03:03.792Z,64.60
2023-03-24T00:05:31.810Z,64.50
2023-03-24T00:08:03.058Z,64.70
2023-03-24T00:10:34.764Z,64.60
2023-03-24T00:13:03.250Z,64.60
2023-03-24T00:15:30.567Z,64.60
2023-03-24T00:17:58.131Z,64.50
2023-03-24T00:20:26.373Z,64.40
2023-03-24T00:22:59.342Z,64.20
2023-03-24T00:25:36.302Z,64.30
2023-03-24T00:28:07.076Z,64.30
2023-03-24T00:30:35.005Z,64.20
2023-03-24T00:33:02.760Z,64.20
2023-03-24T00:35:30.054Z,64.20
2023-03-24T00:37:58.347Z,64.30
2023-03-24T00:40:25.718Z,64.30
2023-03-24T00:42:53.113Z,64.20
2023-03-24T00:45:25.351Z,64.10
2023-03-24T00:47:57.858Z,64.10
2023-03-24T00:50:28.651Z,64.10
2023-03-24T00:52:58.079Z,64.10
2023-03-24T00:55:28.360Z,64.10
2023-03-24T00:57:55.851Z,64.20
2023-03-24T01:00:25.683Z,64.30
2023-03-24T01:02:57.587Z,64.50
2023-03-24T01:05:28.352Z,64.50
2023-03-24T01:08:03.439Z,64.40
2023-03-24T01:10:42.667Z,64.40
2023-03-24T01:13:10.427Z,64.70
2023-03-24T01:15:38.285Z,65.60
2023-03-24T01:18:06.438Z,64.90
2023-03-24T01:20:34.219Z,65.00
2023-03-24T01:23:04.994Z,65.00
2023-03-24T01:25:32.890Z,65.20
2023-03-24T01:28:00.295Z,65.30
2023-03-24T01:30:29.671Z,65.30
2023-03-24T01:32:57.789Z,65.40
2023-03-24T01:35:28.537Z,65.60
2023-03-24T01:37:58.050Z,65.80
2023-03-24T01:40:31.306Z,65.90
2023-03-24T01:42:59.393Z,66.10
2023-03-24T01:46:06.836Z,66.10
2023-03-24T01:49:02.854Z,66.50
2023-03-24T01:51:35.433Z,66.50
2023-03-24T01:54:04.839Z,66.40
2023-03-24T01:56:36.576Z,66.60
2023-03-24T01:59:17.010Z,66.80
2023-03-24T02:02:03.718Z,67.20
2023-03-24T02:04:50.465Z,67.20
2023-03-24T02:07:27.110Z,67.70
2023-03-24T02:09:54.556Z,67.80
2023-03-24T02:12:22.062Z,67.70
2023-03-24T02:14:50.476Z,68.00
2023-03-24T02:17:43.050Z,68.10
2023-03-24T02:20:48.144Z,68.50
2023-03-24T02:23:37.138Z,68.70
2023-03-24T02:26:26.461Z,68.70
2023-03-24T02:29:15.297Z,69.00
2023-03-24T02:32:16.295Z,69.30
2023-03-24T02:34:56.825Z,69.50
2023-03-24T02:37:51.220Z,70.60
2023-03-24T02:40:33.694Z,70.10
2023-03-24T02:43:24.905Z,70.30
2023-03-24T02:46:15.965Z,70.50
2023-03-24T02:48:58.751Z,70.80
2023-03-24T02:51:32.410Z,71.00
2023-03-24T02:54:22.471Z,70.80
2023-03-24T02:57:11.903Z,71.20
2023-03-24T03:00:18.065Z,71.10
2023-03-24T03:03:31.503Z,71.10
2023-03-24T03:06:13.530Z,71.20
2023-03-24T03:08:42.030Z,71.50
2023-03-24T03:11:14.025Z,71.60
2023-03-24T03:13:49.667Z,71.80
2023-03-24T03:16:40.879Z,71.60
2023-03-24T03:19:18.074Z,71.80
2023-03-24T03:21:49.516Z,71.70
2023-03-24T03:24:32.263Z,71.90
2023-03-24T03:27:08.671Z,72.00
2023-03-24T03:29:39.941Z,72.00
2023-03-24T03:32:12.768Z,72.10
2023-03-24T03:34:52.196Z,72.10
2023-03-24T03:37:33.439Z,72.10
2023-03-24T03:40:23.721Z,72.10
2023-03-24T03:42:57.443Z,72.30
2023-03-24T03:45:24.814Z,72.20
2023-03-24T03:47:52.361Z,72.20
2023-03-24T03:50:19.747Z,72.00
2023-03-24T03:52:47.394Z,72.30
2023-03-24T03:55:14.840Z,72.20
2023-03-24T03:57:43.619Z,72.20
2023-03-24T04:00:24.143Z,72.20
2023-03-24T04:03:46.275Z,72.50
2023-03-24T04:06:17.753Z,72.40
2023-03-24T04:08:51.329Z,72.40
2023-03-24T04:11:39.437Z,73.20
2023-03-24T04:15:00.907Z,72.50
2023-03-24T04:18:01.680Z,72.70
2023-03-24T04:21:12.924Z,72.60
2023-03-24T04:23:54.725Z,72.90
2023-03-24T04:26:34.289Z,72.90
2023-03-24T04:29:08.960Z,73.10
2023-03-24T04:31:56.030Z,73.10
2023-03-24T04:34:32.842Z,73.20
2023-03-24T04:37:32.588Z,73.20
2023-03-24T04:40:11.262Z,73.20
2023-03-24T04:42:46.594Z,73.20
2023-03-24T04:45:16.958Z,73.20
2023-03-24T04:48:05.766Z,73.30
2023-03-24T04:50:43.717Z,73.30
2023-03-24T04:53:19.230Z,73.30
2023-03-24T04:55:49.677Z,73.20
2023-03-24T04:58:23.269Z,73.30
2023-03-24T05:00:51.480Z,73.10
2023-03-24T05:03:19.629Z,73.20
2023-03-24T05:05:49.342Z,73.10
2023-03-24T05:08:18.829Z,73.30
2023-03-24T05:10:46.452Z,73.30
2023-03-24T05:13:14.580Z,73.30
2023-03-24T05:15:55.823Z,73.20
2023-03-24T05:18:29.104Z,73.30
2023-03-24T05:20:57.710Z,73.20
2023-03-24T05:23:26.165Z,73.10
2023-03-24T05:25:54.597Z,73.00
2023-03-24T05:28:23.855Z,72.90
2023-03-24T05:30:53.687Z,73.10
2023-03-24T05:33:47.044Z,72.70
2023-03-24T05:36:17.794Z,72.50
2023-03-24T05:38:53.887Z,72.50
2023-03-24T05:41:21.948Z,72.40
2023-03-24T05:43:49.462Z,72.40
2023-03-24T05:46:17.513Z,72.30
2023-03-24T05:48:46.910Z,72.10
2023-03-24T05:51:19.486Z,71.90
2023-03-24T05:53:52.905Z,71.90
2023-03-24T05:56:34.250Z,72.00
2023-03-24T05:59:27.144Z,72.00
2023-03-24T06:02:07.763Z,71.80
2023-03-24T06:04:59.126Z,71.90
2023-03-24T06:07:30.547Z,71.90
2023-03-24T06:10:02.922Z,71.90
2023-03-24T06:12:37.746Z,72.00
2023-03-24T06:15:05.811Z,72.00
2023-03-24T06:17:34.222Z,72.00
2023-03-24T06:20:15.847Z,72.20
2023-03-24T06:22:50.314Z,72.40
2023-03-24T06:25:26.151Z,72.40
2023-03-24T06:28:12.190Z,72.60
2023-03-24T06:30:43.812Z,72.90
2023-03-24T06:33:13.852Z,73.10
2023-03-24T06:35:43.985Z,73.20
2023-03-24T06:38:15.313Z,73.30
2023-03-24T06:40:43.791Z,73.30
2023-03-24T06:43:11.469Z,73.30
2023-03-24T06:45:40.637Z,73.10
2023-03-24T06:48:12.499Z,73.00
2023-03-24T06:50:41.362Z,73.00
2023-03-24T06:53:10.894Z,72.90
2023-03-24T06:55:38.953Z,72.80
2023-03-24T06:58:07.644Z,72.70
2023-03-24T07:00:38.083Z,72.70
2023-03-24T07:03:24.992Z,72.50
2023-03-24T07:06:12.826Z,72.30
2023-03-24T07:08:40.738Z,71.70
2023-03-24T07:11:10.106Z,71.10
2023-03-24T07:13:41.010Z,70.30
2023-03-24T07:16:09.256Z,70.30
2023-03-24T07:18:38.972Z,70.00
2023-03-24T07:21:07.845Z,70.30
2023-03-24T07:23:36.742Z,70.60
2023-03-24T07:26:11.693Z,70.80
2023-03-24T07:28:44.797Z,70.80
2023-03-24T07:31:12.467Z,71.00
2023-03-24T07:33:42.062Z,70.90
2023-03-24T07:36:09.681Z,71.10
2023-03-24T07:38:39.332Z,71.30
2023-03-24T07:41:11.138Z,71.50
2023-03-24T07:43:42.059Z,71.70
2023-03-24T07:46:20.683Z,71.80
2023-03-24T07:48:47.902Z,71.90
2023-03-24T07:51:18.007Z,71.90
2023-03-24T07:53:59.133Z,72.10
2023-03-24T07:56:48.078Z,72.10
2023-03-24T07:59:15.489Z,72.20
2023-03-24T08:02:10.102Z,72.30
2023-03-24T08:04:56.373Z,72.50
2023-03-24T08:07:50.453Z,72.60
2023-03-24T08:10:18.091Z,72.90
2023-03-24T08:12:46.442Z,72.90
2023-03-24T08:15:14.579Z,73.10
2023-03-24T08:17:42.191Z,73.10
2023-03-24T08:20:14.462Z,73.30
2023-03-24T08:22:44.831Z,73.60
2023-03-24T08:25:13.368Z,73.50
2023-03-24T08:27:43.355Z,73.30
2023-03-24T08:30:14.247Z,73.50
2023-03-24T08:32:53.223Z,73.70
2023-03-24T08:35:24.879Z,73.70
2023-03-24T08:37:52.743Z,73.60
2023-03-24T08:40:23.428Z,73.80
2023-03-24T08:42:54.197Z,73.90
2023-03-24T08:45:23.906Z,73.70
2023-03-24T08:47:52.421Z,73.50
2023-03-24T08:50:22.351Z,73.60
2023-03-24T08:52:50.522Z,73.00
2023-03-24T08:55:19.304Z,72.60
2023-03-24T08:57:47.359Z,72.60
2023-03-24T09:00:16.523Z,72.70
2023-03-24T09:02:50.097Z,72.50
2023-03-24T09:05:22.731Z,72.20
2023-03-24T09:07:54.387Z,72.30
2023-03-24T09:10:22.494Z,72.10
2023-03-24T09:12:50.488Z,72.10
2023-03-24T09:15:18.349Z,72.20
2023-03-24T09:17:45.923Z,72.50
2023-03-24T09:20:15.906Z,72.30
2023-03-24T09:22:45.823Z,72.40
2023-03-24T09:25:16.717Z,72.40
2023-03-24T09:27:44.490Z,72.00
2023-03-24T09:30:13.962Z,72.10
2023-03-24T09:32:41.693Z,72.00
2023-03-24T09:35:09.711Z,72.20
2023-03-24T09:37:38.904Z,72.30
2023-03-24T09:40:07.759Z,72.30
2023-03-24T09:42:40.386Z,73.10
2023-03-24T09:45:15.888Z,72.20
2023-03-24T09:47:52.516Z,72.20
2023-03-24T09:50:27.558Z,71.80
2023-03-24T09:53:07.834Z,71.90
2023-03-24T09:55:39.161Z,71.80
2023-03-24T09:58:08.986Z,71.50
2023-03-24T10:00:37.104Z,71.60
2023-03-24T10:03:21.338Z,71.80
2023-03-24T10:06:09.046Z,71.90
2023-03-24T10:08:37.461Z,71.70
2023-03-24T10:11:05.017Z,71.20
2023-03-24T10:14:15.183Z,71.10
2023-03-24T10:16:52.243Z,71.20
2023-03-24T10:19:26.252Z,70.90
2023-03-24T10:22:03.769Z,70.90
2023-03-24T10:24:48.025Z,70.80
2023-03-24T10:27:37.138Z,70.70
2023-03-24T10:30:12.439Z,70.90
2023-03-24T10:32:42.618Z,71.00
2023-03-24T10:35:18.391Z,71.10
2023-03-24T10:37:45.947Z,70.80
2023-03-24T10:40:16.611Z,71.00
2023-03-24T10:42:46.579Z,70.90
2023-03-24T10:45:18.639Z,71.40
2023-03-24T10:47:48.750Z,71.30
2023-03-24T10:50:16.356Z,71.40
2023-03-24T10:52:48.580Z,71.00
2023-03-24T10:55:23.265Z,70.70
2023-03-24T10:57:55.269Z,70.90
2023-03-24T11:00:31.836Z,71.00
2023-03-24T11:03:02.039Z,70.80
2023-03-24T11:05:33.688Z,70.60
2023-03-24T11:08:18.499Z,70.20
2023-03-24T11:10:45.873Z,70.70
2023-03-24T11:13:30.706Z,70.30
2023-03-24T11:16:12.046Z,69.80
2023-03-24T11:18:55.501Z,69.50
2023-03-24T11:21:23.498Z,69.00
2023-03-24T11:23:51.365Z,69.30
2023-03-24T11:26:33.662Z,68.90
2023-03-24T11:29:07.855Z,68.20
2023-03-24T11:31:40.606Z,68.30
2023-03-24T11:34:09.277Z,68.10
2023-03-24T11:36:48.503Z,68.30
2023-03-24T11:39:24.785Z,68.50
2023-03-24T11:42:10.280Z,68.50
2023-03-24T11:44:38.452Z,68.30
2023-03-24T11:47:16.883Z,69.00
2023-03-24T11:50:15.987Z,68.90
2023-03-24T11:52:55.183Z,68.70
2023-03-24T11:55:47.215Z,68.60
2023-03-24T11:58:33.384Z,68.30
2023-03-24T12:01:15.833Z,68.90
2023-03-24T12:03:55.783Z,68.30
2023-03-24T12:06:26.024Z,68.00
2023-03-24T12:09:21.115Z,67.80
2023-03-24T12:12:08.049Z,67.40
2023-03-24T12:15:26.760Z,66.20
2023-03-24T12:18:16.314Z,65.70
2023-03-24T12:20:49.983Z,66.30
2023-03-24T12:23:53.088Z,65.60
2023-03-24T12:26:27.716Z,64.50
2023-03-24T12:29:01.469Z,63.60
2023-03-24T12:31:38.842Z,63.30
2023-03-24T12:34:33.700Z,62.50
2023-03-24T12:37:20.155Z,62.60
2023-03-24T12:40:12.945Z,62.70
2023-03-24T12:42:44.983Z,62.70
2023-03-24T12:45:38.625Z,62.90
2023-03-24T12:48:09.014Z,63.10
2023-03-24T12:50:42.702Z,62.80
2023-03-24T12:53:25.567Z,62.50
2023-03-24T12:56:10.605Z,62.80
2023-03-24T12:59:02.413Z,63.50
2023-03-24T13:01:58.334Z,63.60
2023-03-24T13:04:31.093Z,63.80
2023-03-24T13:07:11.460Z,63.50
2023-03-24T13:10:06.909Z,64.80
2023-03-24T13:12:45.680Z,65.70
2023-03-24T13:15:13.060Z,65.80
2023-03-24T13:18:09.219Z,66.30
2023-03-24T13:20:50.160Z,67.00
2023-03-24T13:23:46.252Z,67.90
2023-03-24T13:26:23.392Z,68.30
2023-03-24T13:29:07.341Z,68.20
2023-03-24T13:32:05.202Z,68.40
2023-03-24T13:34:39.705Z,68.60
2023-03-24T13:37:19.257Z,68.80
2023-03-24T13:39:47.308Z,69.00
2023-03-24T13:42:29.663Z,69.10
2023-03-24T13:45:02.981Z,69.20
2023-03-24T13:48:06.757Z,69.50
2023-03-24T13:50:37.207Z,69.40
2023-03-24T13:53:13.979Z,69.20
2023-03-24T13:55:50.595Z,68.80
2023-03-24T13:58:21.749Z,68.80
2023-03-24T14:01:06.116Z,64.10
2023-03-24T14:03:43.257Z,64.60
2023-03-24T14:06:15.043Z,65.00
2023-03-24T14:08:51.814Z,64.90
2023-03-24T14:11:33.984Z,65.30
2023-03-24T14:14:21.356Z,66.30
2023-03-24T14:17:08.240Z,67.20
2023-03-24T14:19:43.916Z,67.50
2023-03-24T14:22:32.812Z,67.60
2023-03-24T14:25:03.637Z,68.00
2023-03-24T14:27:42.787Z,68.30
2023-03-24T14:30:10.849Z,68.20
2023-03-24T14:32:46.504Z,68.40
2023-03-24T14:35:34.628Z,68.70
2023-03-24T14:38:05.062Z,68.60
2023-03-24T14:40:41.782Z,68.60
2023-03-24T14:43:41.048Z,69.10
2023-03-24T14:46:20.998Z,69.30
2023-03-24T14:49:00.117Z,69.40
2023-03-24T14:51:48.736Z,69.30
2023-03-24T14:54:21.009Z,69.00
2023-03-24T14:56:53.286Z,68.90
2023-03-24T14:59:25.550Z,68.50
2023-03-24T15:02:03.699Z,68.90
2023-03-24T15:04:33.544Z,68.70
2023-03-24T15:07:04.506Z,68.90
2023-03-24T15:09:35.567Z,69.00
2023-03-24T15:12:03.874Z,68.90
2023-03-24T15:14:31.828Z,69.20
2023-03-24T15:17:14.903Z,68.90
2023-03-24T15:19:43.323Z,68.70
2023-03-24T15:22:13.468Z,68.30
2023-03-24T15:24:42.477Z,68.60
2023-03-24T15:27:28.964Z,68.90
2023-03-24T15:29:59.476Z,69.10
2023-03-24T15:32:31.568Z,69.30
2023-03-24T15:35:08.728Z,69.20
2023-03-24T15:37:40.689Z,68.80
2023-03-24T15:40:30.368Z,69.00
2023-03-24T15:43:00.233Z,69.10
2023-03-24T15:45:32.031Z,69.20
2023-03-24T15:48:08.867Z,69.60
2023-03-24T15:50:39.755Z,69.70
2023-03-24T15:53:18.634Z,69.40
2023-03-24T15:55:46.147Z,69.50
2023-03-24T15:58:28.430Z,69.30
2023-03-24T16:00:59.977Z,69.10
2023-03-24T16:03:30.081Z,68.60
2023-03-24T16:05:57.885Z,67.90
2023-03-24T16:08:31.474Z,67.90
2023-03-24T16:11:11.959Z,67.80
2023-03-24T16:13:44.878Z,67.90
2023-03-24T16:16:14.940Z,68.30
2023-03-24T16:18:44.641Z,67.80
2023-03-24T16:21:21.793Z,67.50
2023-03-24T16:23:51.269Z,67.30
2023-03-24T16:26:27.405Z,67.40
2023-03-24T16:28:59.277Z,67.30
2023-03-24T16:31:32.203Z,67.30
2023-03-24T16:33:59.616Z,66.90
2023-03-24T16:36:27.692Z,66.80
2023-03-24T16:38:57.432Z,66.70
2023-03-24T16:41:25.412Z,66.90
2023-03-24T16:43:53.902Z,66.80
2023-03-24T16:46:29.681Z,66.90
2023-03-24T16:48:57.708Z,66.80
2023-03-24T16:51:25.174Z,66.70
2023-03-24T16:53:52.449Z,66.80
2023-03-24T16:56:21.601Z,67.10
2023-03-24T16:58:50.821Z,67.10
2023-03-24T17:01:37.707Z,66.90
2023-03-24T17:04:09.518Z,66.90
2023-03-24T17:06:40.233Z,66.90
2023-03-24T17:09:08.437Z,67.10
2023-03-24T17:11:40.564Z,66.90
2023-03-24T17:14:12.188Z,67.00
2023-03-24T17:16:44.961Z,67.10
2023-03-24T17:19:17.709Z,67.20
2023-03-24T17:21:47.733Z,67.20
2023-03-24T17:24:15.617Z,67.60
2023-03-24T17:26:43.166Z,67.60
2023-03-24T17:29:13.019Z,67.60
2023-03-24T17:31:42.892Z,67.80
2023-03-24T17:34:21.439Z,67.90
2023-03-24T17:36:50.733Z,67.90
2023-03-24T17:39:19.735Z,67.90
2023-03-24T17:41:47.240Z,68.00
2023-03-24T17:44:14.694Z,68.30
2023-03-24T17:46:42.025Z,68.50
2023-03-24T17:49:09.368Z,68.60
2023-03-24T17:51:36.633Z,68.40
2023-03-24T17:54:04.298Z,68.30
2023-03-24T17:56:31.979Z,68.30
2023-03-24T17:58:59.321Z,68.50
2023-03-24T18:01:29.315Z,68.40
2023-03-24T18:03:57.915Z,68.30
2023-03-24T18:06:27.239Z,68.50
2023-03-24T18:08:54.671Z,68.60
2023-03-24T18:11:21.902Z,68.70
2023-03-24T18:13:49.276Z,68.80
2023-03-24T18:16:21.703Z,69.00
2023-03-24T18:18:51.002Z,69.10
2023-03-24T18:21:19.186Z,69.20
2023-03-24T18:23:47.143Z,69.20
2023-03-24T18:26:16.495Z,69.30
2023-03-24T18:28:45.851Z,69.30
2023-03-24T18:31:16.406Z,69.40
2023-03-24T18:33:45.769Z,69.50
2023-03-24T18:36:21.487Z,69.50
2023-03-24T18:38:49.402Z,69.50
2023-03-24T18:41:18.409Z,69.60
2023-03-24T18:43:47.869Z,69.70
2023-03-24T18:46:16.128Z,69.70
2023-03-24T18:48:43.941Z,69.80
2023-03-24T18:51:11.791Z,69.80
2023-03-24T18:53:39.556Z,69.80
2023-03-24T18:56:08.490Z,69.90
2023-03-24T18:58:38.047Z,70.10
2023-03-24T19:01:08.987Z,70.30
2023-03-24T19:03:38.911Z,70.50
2023-03-24T19:06:08.359Z,70.60
2023-03-24T19:08:37.970Z,70.80
2023-03-24T19:11:05.529Z,70.90
2023-03-24T19:13:33.078Z,71.00
2023-03-24T19:16:00.633Z,71.00
2023-03-24T19:18:28.137Z,71.20
2023-03-24T19:20:59.421Z,71.40
2023-03-24T19:23:27.114Z,71.60
2023-03-24T19:25:55.248Z,71.70
2023-03-24T19:28:29.068Z,71.90
2023-03-24T19:31:04.708Z,72.00
2023-03-24T19:33:32.121Z,72.00
2023-03-24T19:35:59.540Z,72.00
2023-03-24T19:38:27.336Z,72.00
2023-03-24T19:40:55.173Z,72.00
2023-03-24T19:43:24.313Z,72.00
2023-03-24T19:45:53.359Z,71.90
2023-03-24T19:48:21.782Z,72.00
2023-03-24T19:50:51.516Z,72.10
2023-03-24T19:53:19.393Z,71.90
2023-03-24T19:55:46.826Z,71.80
2023-03-24T19:58:14.639Z,72.00
2023-03-24T20:00:42.361Z,72.70
2023-03-24T20:03:10.055Z,72.10
2023-03-24T20:05:37.436Z,72.10
2023-03-24T20:08:05.359Z,72.30
2023-03-24T20:10:34.557Z,72.20
2023-03-24T20:13:01.885Z,72.30
2023-03-24T20:15:29.067Z,72.30
2023-03-24T20:17:56.430Z,72.20
2023-03-24T20:20:23.674Z,72.40
2023-03-24T20:22:50.990Z,72.60
2023-03-24T20:25:19.361Z,72.60
2023-03-24T20:27:47.779Z,72.70
2023-03-24T20:30:20.293Z,72.80
2023-03-24T20:32:48.267Z,73.00
2023-03-24T20:35:15.893Z,73.00
2023-03-24T20:37:43.333Z,73.00
2023-03-24T20:40:11.058Z,73.10
2023-03-24T20:42:38.656Z,73.10
2023-03-24T20:45:07.291Z,73.30
2023-03-24T20:47:36.335Z,73.40
2023-03-24T20:50:05.916Z,73.50
2023-03-24T20:52:33.632Z,73.50
2023-03-24T20:55:05.464Z,73.60
2023-03-24T20:57:33.165Z,73.80
2023-03-24T21:00:00.845Z,73.80
2023-03-24T21:02:28.451Z,73.80
2023-03-24T21:04:55.983Z,73.80
2023-03-24T21:07:23.487Z,73.70
2023-03-24T21:09:51.075Z,73.70
2023-03-24T21:12:18.328Z,73.60
2023-03-24T21:14:46.655Z,73.80
2023-03-24T21:17:14.348Z,73.90
2023-03-24T21:19:46.852Z,73.90
2023-03-24T21:22:15.237Z,73.90
2023-03-24T21:24:42.510Z,73.90
2023-03-24T21:27:09.905Z,73.70
2023-03-24T21:29:37.151Z,73.70
2023-03-24T21:32:04.533Z,73.60
2023-03-24T21:34:32.244Z,73.50
2023-03-24T21:37:01.314Z,73.50
2023-03-24T21:39:28.751Z,73.40
2023-03-24T21:41:56.365Z,73.50
2023-03-24T21:44:23.636Z,73.50
2023-03-24T21:46:50.892Z,73.50
2023-03-24T21:49:18.790Z,73.60
2023-03-24T21:51:46.593Z,73.60
2023-03-24T21:54:14.680Z,73.80
2023-03-24T21:56:42.160Z,73.80
2023-03-24T21:59:11.006Z,73.70
2023-03-24T22:01:38.265Z,73.70
2023-03-24T22:04:08.470Z,73.80
2023-03-24T22:06:37.831Z,73.90
2023-03-24T22:09:06.768Z,74.00
2023-03-24T22:11:35.116Z,74.00
2023-03-24T22:14:03.532Z,74.20
2023-03-24T22:16:30.893Z,74.30
2023-03-24T22:18:58.605Z,74.40
2023-03-24T22:21:26.010Z,74.60
2023-03-24T22:23:53.241Z,74.80
2023-03-24T22:26:20.978Z,74.70
2023-03-24T22:28:48.429Z,74.80
2023-03-24T22:31:16.985Z,74.70
2023-03-24T22:33:44.870Z,74.70
2023-03-24T22:36:12.423Z,74.70
2023-03-24T22:38:40.409Z,74.70
2023-03-24T22:41:10.164Z,74.60
2023-03-24T22:43:39.451Z,74.40
2023-03-24T22:46:07.716Z,74.30
2023-03-24T22:48:35.174Z,74.30
2023-03-24T22:51:02.739Z,74.20
2023-03-24T22:53:30.535Z,74.20
2023-03-24T22:55:57.895Z,74.20
2023-03-24T22:58:25.204Z,74.30
2023-03-24T23:00:56.307Z,74.30
2023-03-24T23:03:23.903Z,74.50
2023-03-24T23:05:51.462Z,74.50
2023-03-24T23:08:19.492Z,74.00
2023-03-24T23:10:47.459Z,74.60
2023-03-24T23:13:16.785Z,74.60
2023-03-24T23:15:44.386Z,74.70
2023-03-24T23:18:12.034Z,74.80
2023-03-24T23:20:40.612Z,73.80
2023-03-24T23:23:08.107Z,73.30
2023-03-24T23:25:44.700Z,72.20
2023-03-24T23:28:13.300Z,71.50
2023-03-24T23:30:41.213Z,71.90
2023-03-24T23:33:09.125Z,71.80
2023-03-24T23:35:37.259Z,72.20
2023-03-24T23:38:06.580Z,72.60
2023-03-24T23:40:34.069Z,73.10
2023-03-24T23:43:02.215Z,73.30
2023-03-24T23:45:29.498Z,73.50
2023-03-24T23:47:57.030Z,73.60
2023-03-24T23:50:24.422Z,74.00
2023-03-24T23:52:51.786Z,74.30
2023-03-24T23:55:20.864Z,74.30
2023-03-24T23:57:49.140Z,74.20
